sensor_id;sensor_type;location;lat;lon;timestamp;temperature;humidity
42135;DHT22;28312;43.460;11.810;2023-02-18T00:01:58;6.90;57.50
42135;DHT22;28312;43.460;11.810;2023-02-18T00:06:09;7.00;57.50
42135;DHT22;28312;43.460;11.810;2023-02-18T00:10:13;7.00;57.70
42135;DHT22;28312;43.460;11.810;2023-02-18T00:14:17;7.00;57.60
42135;DHT22;28312;43.460;11.810;2023-02-18T00:18:20;7.10;57.40
42135;DHT22;28312;43.460;11.810;2023-02-18T00:22:23;7.10;57.30
42135;DHT22;28312;43.460;11.810;2023-02-18T00:26:26;7.10;57.40
42135;DHT22;28312;43.460;11.810;2023-02-18T00:30:29;7.10;57.70
42135;DHT22;28312;43.460;11.810;2023-02-18T00:34:33;7.10;57.70
42135;DHT22;28312;43.460;11.810;2023-02-18T00:38:38;7.10;57.70
42135;DHT22;28312;43.460;11.810;2023-02-18T00:42:41;7.10;57.80
42135;DHT22;28312;43.460;11.810;2023-02-18T00:46:44;7.10;57.90
42135;DHT22;28312;43.460;11.810;2023-02-18T00:50:50;7.10;58.20
42135;DHT22;28312;43.460;11.810;2023-02-18T00:54:53;7.10;58.30
42135;DHT22;28312;43.460;11.810;2023-02-18T00:58:56;7.10;58.30
42135;DHT22;28312;43.460;11.810;2023-02-18T01:02:59;7.20;58.30
42135;DHT22;28312;43.460;11.810;2023-02-18T01:07:02;7.20;58.20
42135;DHT22;28312;43.460;11.810;2023-02-18T01:11:06;7.20;58.00
42135;DHT22;28312;43.460;11.810;2023-02-18T01:15:10;7.30;58.00
42135;DHT22;28312;43.460;11.810;2023-02-18T01:19:16;7.30;57.90
42135;DHT22;28312;43.460;11.810;2023-02-18T01:23:19;7.30;57.70
42135;DHT22;28312;43.460;11.810;2023-02-18T01:27:23;7.30;57.80
42135;DHT22;28312;43.460;11.810;2023-02-18T01:31:27;7.30;57.60
42135;DHT22;28312;43.460;11.810;2023-02-18T01:35:30;7.20;57.70
42135;DHT22;28312;43.460;11.810;2023-02-18T01:39:33;7.20;57.60
42135;DHT22;28312;43.460;11.810;2023-02-18T01:43:36;7.30;57.50
42135;DHT22;28312;43.460;11.810;2023-02-18T01:47:40;7.30;57.60
42135;DHT22;28312;43.460;11.810;2023-02-18T01:51:46;7.20;57.60
42135;DHT22;28312;43.460;11.810;2023-02-18T01:55:50;7.20;57.60
42135;DHT22;28312;43.460;11.810;2023-02-18T01:59:54;7.20;57.60
42135;DHT22;28312;43.460;11.810;2023-02-18T02:03:58;7.20;57.40
42135;DHT22;28312;43.460;11.810;2023-02-18T02:08:01;7.20;57.40
42135;DHT22;28312;43.460;11.810;2023-02-18T02:12:09;7.20;57.40
42135;DHT22;28312;43.460;11.810;2023-02-18T02:16:25;7.20;57.40
42135;DHT22;28312;43.460;11.810;2023-02-18T02:24:58;7.20;57.50
42135;DHT22;28312;43.460;11.810;2023-02-18T02:45:55;7.20;57.40
42135;DHT22;28312;43.460;11.810;2023-02-18T02:50:36;7.20;57.40
42135;DHT22;28312;43.460;11.810;2023-02-18T02:54:30;7.20;57.40
42135;DHT22;28312;43.460;11.810;2023-02-18T02:58:34;7.10;57.60
42135;DHT22;28312;43.460;11.810;2023-02-18T03:03:04;7.00;57.70
42135;DHT22;28312;43.460;11.810;2023-02-18T03:11:15;7.00;57.70
42135;DHT22;28312;43.460;11.810;2023-02-18T03:23:36;6.90;58.00
42135;DHT22;28312;43.460;11.810;2023-02-18T03:27:42;6.90;57.90
42135;DHT22;28312;43.460;11.810;2023-02-18T03:31:48;6.90;57.90
42135;DHT22;28312;43.460;11.810;2023-02-18T03:35:52;7.00;57.70
42135;DHT22;28312;43.460;11.810;2023-02-18T03:39:56;7.00;57.60
42135;DHT22;28312;43.460;11.810;2023-02-18T03:44:03;7.10;57.40
42135;DHT22;28312;43.460;11.810;2023-02-18T03:48:09;7.10;57.30
42135;DHT22;28312;43.460;11.810;2023-02-18T03:52:12;7.00;57.30
42135;DHT22;28312;43.460;11.810;2023-02-18T03:56:16;7.10;57.20
42135;DHT22;28312;43.460;11.810;2023-02-18T04:00:19;7.10;57.20
42135;DHT22;28312;43.460;11.810;2023-02-18T04:04:23;7.10;57.10
42135;DHT22;28312;43.460;11.810;2023-02-18T04:08:26;7.10;57.00
42135;DHT22;28312;43.460;11.810;2023-02-18T04:12:29;7.00;57.10
42135;DHT22;28312;43.460;11.810;2023-02-18T04:16:32;7.10;57.10
42135;DHT22;28312;43.460;11.810;2023-02-18T04:20:35;7.00;57.00
42135;DHT22;28312;43.460;11.810;2023-02-18T04:24:39;7.00;57.10
42135;DHT22;28312;43.460;11.810;2023-02-18T04:28:42;7.10;57.10
42135;DHT22;28312;43.460;11.810;2023-02-18T04:32:46;7.10;57.10
42135;DHT22;28312;43.460;11.810;2023-02-18T04:36:49;7.10;57.00
42135;DHT22;28312;43.460;11.810;2023-02-18T04:40:52;7.20;56.90
42135;DHT22;28312;43.460;11.810;2023-02-18T04:44:55;7.20;56.80
42135;DHT22;28312;43.460;11.810;2023-02-18T04:48:58;7.20;56.80
42135;DHT22;28312;43.460;11.810;2023-02-18T04:53:01;7.10;56.80
42135;DHT22;28312;43.460;11.810;2023-02-18T04:57:04;7.10;56.70
42135;DHT22;28312;43.460;11.810;2023-02-18T05:01:07;7.20;56.60
42135;DHT22;28312;43.460;11.810;2023-02-18T05:05:13;7.20;56.60
42135;DHT22;28312;43.460;11.810;2023-02-18T05:09:18;7.20;56.60
42135;DHT22;28312;43.460;11.810;2023-02-18T05:13:21;7.20;56.60
42135;DHT22;28312;43.460;11.810;2023-02-18T05:17:24;7.20;56.50
42135;DHT22;28312;43.460;11.810;2023-02-18T05:21:29;7.20;56.40
42135;DHT22;28312;43.460;11.810;2023-02-18T05:25:32;7.20;56.40
42135;DHT22;28312;43.460;11.810;2023-02-18T05:29:35;7.20;56.40
42135;DHT22;28312;43.460;11.810;2023-02-18T05:33:38;7.20;56.60
42135;DHT22;28312;43.460;11.810;2023-02-18T05:37:41;7.20;56.60
42135;DHT22;28312;43.460;11.810;2023-02-18T05:41:45;7.20;56.50
42135;DHT22;28312;43.460;11.810;2023-02-18T05:45:48;7.20;56.50
42135;DHT22;28312;43.460;11.810;2023-02-18T05:49:51;7.20;56.50
42135;DHT22;28312;43.460;11.810;2023-02-18T05:53:54;7.20;56.50
42135;DHT22;28312;43.460;11.810;2023-02-18T05:57:58;7.20;56.50
42135;DHT22;28312;43.460;11.810;2023-02-18T06:02:01;7.20;56.30
42135;DHT22;28312;43.460;11.810;2023-02-18T06:06:04;7.20;56.30
42135;DHT22;28312;43.460;11.810;2023-02-18T06:10:08;7.20;56.40
42135;DHT22;28312;43.460;11.810;2023-02-18T06:14:11;7.20;56.40
42135;DHT22;28312;43.460;11.810;2023-02-18T06:18:15;7.10;56.40
42135;DHT22;28312;43.460;11.810;2023-02-18T06:22:18;7.10;56.50
42135;DHT22;28312;43.460;11.810;2023-02-18T06:26:21;7.10;56.50
42135;DHT22;28312;43.460;11.810;2023-02-18T06:30:24;7.10;56.70
42135;DHT22;28312;43.460;11.810;2023-02-18T06:34:27;7.10;56.70
42135;DHT22;28312;43.460;11.810;2023-02-18T06:38:30;7.10;56.70
42135;DHT22;28312;43.460;11.810;2023-02-18T06:42:33;7.10;56.70
42135;DHT22;28312;43.460;11.810;2023-02-18T06:46:36;7.00;56.80
42135;DHT22;28312;43.460;11.810;2023-02-18T06:50:40;6.90;56.90
42135;DHT22;28312;43.460;11.810;2023-02-18T06:54:45;6.90;57.00
42135;DHT22;28312;43.460;11.810;2023-02-18T06:58:48;6.90;57.10
42135;DHT22;28312;43.460;11.810;2023-02-18T07:02:52;7.00;57.20
42135;DHT22;28312;43.460;11.810;2023-02-18T07:06:55;6.90;57.30
42135;DHT22;28312;43.460;11.810;2023-02-18T07:10:58;7.00;57.30
42135;DHT22;28312;43.460;11.810;2023-02-18T07:15:02;7.10;57.30
42135;DHT22;28312;43.460;11.810;2023-02-18T07:19:05;7.10;57.30
42135;DHT22;28312;43.460;11.810;2023-02-18T07:23:08;7.20;57.30
42135;DHT22;28312;43.460;11.810;2023-02-18T07:27:13;7.20;57.30
42135;DHT22;28312;43.460;11.810;2023-02-18T07:31:16;7.20;57.40
42135;DHT22;28312;43.460;11.810;2023-02-18T07:35:23;7.30;57.40
42135;DHT22;28312;43.460;11.810;2023-02-18T07:39:26;7.30;57.50
42135;DHT22;28312;43.460;11.810;2023-02-18T07:43:29;7.40;57.50
42135;DHT22;28312;43.460;11.810;2023-02-18T07:47:32;7.50;57.50
42135;DHT22;28312;43.460;11.810;2023-02-18T07:51:36;7.60;57.50
42135;DHT22;28312;43.460;11.810;2023-02-18T07:55:41;7.70;57.40
42135;DHT22;28312;43.460;11.810;2023-02-18T07:59:54;7.80;57.30
42135;DHT22;28312;43.460;11.810;2023-02-18T08:03:57;8.00;57.30
42135;DHT22;28312;43.460;11.810;2023-02-18T08:08:00;8.10;57.50
42135;DHT22;28312;43.460;11.810;2023-02-18T08:12:03;8.20;57.60
42135;DHT22;28312;43.460;11.810;2023-02-18T08:16:06;8.40;57.60
42135;DHT22;28312;43.460;11.810;2023-02-18T08:20:11;8.50;57.70
42135;DHT22;28312;43.460;11.810;2023-02-18T08:24:19;8.70;57.60
42135;DHT22;28312;43.460;11.810;2023-02-18T08:28:23;8.80;57.40
42135;DHT22;28312;43.460;11.810;2023-02-18T08:32:27;8.90;57.20
42135;DHT22;28312;43.460;11.810;2023-02-18T08:36:30;9.00;57.20
42135;DHT22;28312;43.460;11.810;2023-02-18T08:40:34;9.00;57.20
42135;DHT22;28312;43.460;11.810;2023-02-18T08:44:37;9.10;57.10
42135;DHT22;28312;43.460;11.810;2023-02-18T08:48:40;9.20;57.30
42135;DHT22;28312;43.460;11.810;2023-02-18T08:52:43;9.20;57.50
42135;DHT22;28312;43.460;11.810;2023-02-18T08:56:46;9.20;57.60
42135;DHT22;28312;43.460;11.810;2023-02-18T09:00:49;9.30;57.60
42135;DHT22;28312;43.460;11.810;2023-02-18T09:04:52;9.40;57.70
42135;DHT22;28312;43.460;11.810;2023-02-18T09:08:56;9.50;57.80
42135;DHT22;28312;43.460;11.810;2023-02-18T09:12:59;9.70;57.70
42135;DHT22;28312;43.460;11.810;2023-02-18T09:17:02;9.70;57.70
42135;DHT22;28312;43.460;11.810;2023-02-18T09:21:06;9.80;57.90
42135;DHT22;28312;43.460;11.810;2023-02-18T09:25:12;9.90;57.90
42135;DHT22;28312;43.460;11.810;2023-02-18T09:29:15;10.00;58.00
42135;DHT22;28312;43.460;11.810;2023-02-18T09:33:19;10.20;58.00
42135;DHT22;28312;43.460;11.810;2023-02-18T09:37:22;10.20;58.00
42135;DHT22;28312;43.460;11.810;2023-02-18T09:41:29;10.30;58.20
42135;DHT22;28312;43.460;11.810;2023-02-18T09:45:33;10.40;58.30
42135;DHT22;28312;43.460;11.810;2023-02-18T09:49:37;10.50;58.40
42135;DHT22;28312;43.460;11.810;2023-02-18T09:53:42;10.60;58.40
42135;DHT22;28312;43.460;11.810;2023-02-18T09:57:55;10.80;58.50
42135;DHT22;28312;43.460;11.810;2023-02-18T10:01:59;10.90;58.50
42135;DHT22;28312;43.460;11.810;2023-02-18T10:06:08;11.00;58.60
42135;DHT22;28312;43.460;11.810;2023-02-18T10:14:27;11.20;58.80
42135;DHT22;28312;43.460;11.810;2023-02-18T10:20:56;11.20;59.00
42135;DHT22;28312;43.460;11.810;2023-02-18T10:25:04;11.20;59.20
42135;DHT22;28312;43.460;11.810;2023-02-18T10:29:17;11.40;59.20
42135;DHT22;28312;43.460;11.810;2023-02-18T10:46:36;11.50;59.70
42135;DHT22;28312;43.460;11.810;2023-02-18T10:50:45;11.60;59.80
42135;DHT22;28312;43.460;11.810;2023-02-18T10:55:00;11.60;59.90
42135;DHT22;28312;43.460;11.810;2023-02-18T10:59:30;11.60;60.10
42135;DHT22;28312;43.460;11.810;2023-02-18T11:03:49;11.70;60.30
42135;DHT22;28312;43.460;11.810;2023-02-18T11:07:55;11.90;60.80
42135;DHT22;28312;43.460;11.810;2023-02-18T11:12:04;12.10;60.80
42135;DHT22;28312;43.460;11.810;2023-02-18T11:16:11;12.20;60.90
42135;DHT22;28312;43.460;11.810;2023-02-18T11:20:24;12.30;60.80
42135;DHT22;28312;43.460;11.810;2023-02-18T11:24:28;12.30;60.70
42135;DHT22;28312;43.460;11.810;2023-02-18T11:28:42;12.20;60.80
42135;DHT22;28312;43.460;11.810;2023-02-18T11:32:48;12.30;60.90
42135;DHT22;28312;43.460;11.810;2023-02-18T11:36:52;12.30;60.70
42135;DHT22;28312;43.460;11.810;2023-02-18T11:41:06;12.30;60.60
42135;DHT22;28312;43.460;11.810;2023-02-18T11:45:26;12.30;60.50
42135;DHT22;28312;43.460;11.810;2023-02-18T11:49:31;12.20;60.70
42135;DHT22;28312;43.460;11.810;2023-02-18T11:53:36;12.20;60.90
42135;DHT22;28312;43.460;11.810;2023-02-18T11:57:47;12.10;61.10
42135;DHT22;28312;43.460;11.810;2023-02-18T12:06:27;12.00;61.40
42135;DHT22;28312;43.460;11.810;2023-02-18T12:10:41;12.10;61.40
42135;DHT22;28312;43.460;11.810;2023-02-18T12:14:45;12.20;61.50
42135;DHT22;28312;43.460;11.810;2023-02-18T12:23:22;12.20;61.70
42135;DHT22;28312;43.460;11.810;2023-02-18T12:27:47;12.20;61.80
42135;DHT22;28312;43.460;11.810;2023-02-18T12:49:08;12.20;61.90
42135;DHT22;28312;43.460;11.810;2023-02-18T12:57:42;12.30;62.20
42135;DHT22;28312;43.460;11.810;2023-02-18T13:19:47;12.70;62.10
42135;DHT22;28312;43.460;11.810;2023-02-18T13:23:59;12.80;62.10
42135;DHT22;28312;43.460;11.810;2023-02-18T13:33:01;13.00;61.90
42135;DHT22;28312;43.460;11.810;2023-02-18T13:37:11;12.90;62.10
42135;DHT22;28312;43.460;11.810;2023-02-18T13:41:18;13.00;61.90
42135;DHT22;28312;43.460;11.810;2023-02-18T13:45:30;13.00;61.80
42135;DHT22;28312;43.460;11.810;2023-02-18T13:49:36;13.10;61.70
42135;DHT22;28312;43.460;11.810;2023-02-18T13:53:43;13.10;61.50
42135;DHT22;28312;43.460;11.810;2023-02-18T13:57:48;13.10;61.50
42135;DHT22;28312;43.460;11.810;2023-02-18T14:01:54;13.10;61.30
42135;DHT22;28312;43.460;11.810;2023-02-18T14:05:58;13.10;61.40
42135;DHT22;28312;43.460;11.810;2023-02-18T14:10:26;13.00;61.40
42135;DHT22;28312;43.460;11.810;2023-02-18T14:14:35;12.90;61.50
42135;DHT22;28312;43.460;11.810;2023-02-18T14:22:48;12.80;61.70
42135;DHT22;28312;43.460;11.810;2023-02-18T14:26:52;12.70;61.90
42135;DHT22;28312;43.460;11.810;2023-02-18T14:30:56;12.70;62.30
42135;DHT22;28312;43.460;11.810;2023-02-18T14:53:03;12.40;62.70
42135;DHT22;28312;43.460;11.810;2023-02-18T14:57:13;12.40;62.70
42135;DHT22;28312;43.460;11.810;2023-02-18T15:01:28;12.40;62.90
42135;DHT22;28312;43.460;11.810;2023-02-18T15:05:36;12.30;63.00
42135;DHT22;28312;43.460;11.810;2023-02-18T15:09:45;12.20;63.00
42135;DHT22;28312;43.460;11.810;2023-02-18T15:13:49;12.20;63.10
42135;DHT22;28312;43.460;11.810;2023-02-18T15:17:53;12.20;63.10
42135;DHT22;28312;43.460;11.810;2023-02-18T15:21:58;12.20;63.10
42135;DHT22;28312;43.460;11.810;2023-02-18T15:26:02;12.20;62.90
42135;DHT22;28312;43.460;11.810;2023-02-18T15:30:30;12.20;62.80
42135;DHT22;28312;43.460;11.810;2023-02-18T15:34:38;12.20;62.70
42135;DHT22;28312;43.460;11.810;2023-02-18T15:38:42;12.20;62.60
42135;DHT22;28312;43.460;11.810;2023-02-18T15:42:49;12.20;62.50
42135;DHT22;28312;43.460;11.810;2023-02-18T15:46:53;12.20;62.40
42135;DHT22;28312;43.460;11.810;2023-02-18T15:51:03;12.20;62.30
42135;DHT22;28312;43.460;11.810;2023-02-18T15:55:29;12.20;62.40
42135;DHT22;28312;43.460;11.810;2023-02-18T15:59:35;12.10;62.20
42135;DHT22;28312;43.460;11.810;2023-02-18T16:03:46;12.10;62.30
42135;DHT22;28312;43.460;11.810;2023-02-18T16:08:02;12.00;62.30
42135;DHT22;28312;43.460;11.810;2023-02-18T16:12:48;11.90;62.30
42135;DHT22;28312;43.460;11.810;2023-02-18T16:17:07;11.90;62.30
42135;DHT22;28312;43.460;11.810;2023-02-18T16:21:35;11.90;62.40
42135;DHT22;28312;43.460;11.810;2023-02-18T16:25:42;11.90;62.50
42135;DHT22;28312;43.460;11.810;2023-02-18T16:29:50;11.80;62.50
42135;DHT22;28312;43.460;11.810;2023-02-18T16:33:54;11.80;62.40
42135;DHT22;28312;43.460;11.810;2023-02-18T16:37:57;11.80;62.40
42135;DHT22;28312;43.460;11.810;2023-02-18T16:42:02;11.70;62.50
42135;DHT22;28312;43.460;11.810;2023-02-18T16:46:08;11.70;62.50
42135;DHT22;28312;43.460;11.810;2023-02-18T16:50:19;11.70;62.60
42135;DHT22;28312;43.460;11.810;2023-02-18T16:54:23;11.60;62.80
42135;DHT22;28312;43.460;11.810;2023-02-18T16:58:27;11.50;63.00
42135;DHT22;28312;43.460;11.810;2023-02-18T17:02:30;11.40;63.00
42135;DHT22;28312;43.460;11.810;2023-02-18T17:06:34;11.40;63.20
42135;DHT22;28312;43.460;11.810;2023-02-18T17:10:37;11.30;63.30
42135;DHT22;28312;43.460;11.810;2023-02-18T17:14:41;11.20;63.40
42135;DHT22;28312;43.460;11.810;2023-02-18T17:18:46;11.20;63.30
42135;DHT22;28312;43.460;11.810;2023-02-18T17:22:49;11.20;63.40
42135;DHT22;28312;43.460;11.810;2023-02-18T17:26:53;11.20;63.50
42135;DHT22;28312;43.460;11.810;2023-02-18T17:30:57;11.10;63.70
42135;DHT22;28312;43.460;11.810;2023-02-18T17:35:00;11.00;63.80
42135;DHT22;28312;43.460;11.810;2023-02-18T17:39:13;11.00;63.80
42135;DHT22;28312;43.460;11.810;2023-02-18T17:43:18;11.00;64.00
42135;DHT22;28312;43.460;11.810;2023-02-18T17:47:23;11.00;64.00
42135;DHT22;28312;43.460;11.810;2023-02-18T17:51:27;10.90;64.20
42135;DHT22;28312;43.460;11.810;2023-02-18T17:55:35;10.90;64.40
42135;DHT22;28312;43.460;11.810;2023-02-18T17:59:39;10.90;64.50
42135;DHT22;28312;43.460;11.810;2023-02-18T18:03:45;10.90;64.60
42135;DHT22;28312;43.460;11.810;2023-02-18T18:07:49;10.90;64.50
42135;DHT22;28312;43.460;11.810;2023-02-18T18:11:54;10.80;64.70
42135;DHT22;28312;43.460;11.810;2023-02-18T18:15:58;10.80;64.80
42135;DHT22;28312;43.460;11.810;2023-02-18T18:20:01;10.80;64.70
42135;DHT22;28312;43.460;11.810;2023-02-18T18:24:05;10.80;64.70
42135;DHT22;28312;43.460;11.810;2023-02-18T18:28:11;10.90;64.70
42135;DHT22;28312;43.460;11.810;2023-02-18T18:32:14;10.90;64.80
42135;DHT22;28312;43.460;11.810;2023-02-18T18:36:20;10.90;64.70
42135;DHT22;28312;43.460;11.810;2023-02-18T18:40:28;10.90;64.50
42135;DHT22;28312;43.460;11.810;2023-02-18T18:44:31;10.90;64.50
42135;DHT22;28312;43.460;11.810;2023-02-18T18:49:00;10.80;64.40
42135;DHT22;28312;43.460;11.810;2023-02-18T18:53:05;10.80;64.50
42135;DHT22;28312;43.460;11.810;2023-02-18T18:57:10;10.80;64.50
42135;DHT22;28312;43.460;11.810;2023-02-18T19:01:18;10.80;64.40
42135;DHT22;28312;43.460;11.810;2023-02-18T19:09:28;10.80;64.40
42135;DHT22;28312;43.460;11.810;2023-02-18T19:13:33;10.80;64.50
42135;DHT22;28312;43.460;11.810;2023-02-18T19:17:38;10.70;64.80
42135;DHT22;28312;43.460;11.810;2023-02-18T19:21:43;10.70;65.10
42135;DHT22;28312;43.460;11.810;2023-02-18T19:25:48;10.70;65.10
42135;DHT22;28312;43.460;11.810;2023-02-18T19:29:51;10.70;65.10
42135;DHT22;28312;43.460;11.810;2023-02-18T19:33:56;10.70;65.20
42135;DHT22;28312;43.460;11.810;2023-02-18T19:38:01;10.60;65.30
42135;DHT22;28312;43.460;11.810;2023-02-18T19:42:04;10.60;65.40
42135;DHT22;28312;43.460;11.810;2023-02-18T19:46:12;10.60;65.50
42135;DHT22;28312;43.460;11.810;2023-02-18T19:50:16;10.60;65.50
42135;DHT22;28312;43.460;11.810;2023-02-18T19:54:19;10.70;65.40
42135;DHT22;28312;43.460;11.810;2023-02-18T19:58:22;10.60;65.40
42135;DHT22;28312;43.460;11.810;2023-02-18T20:02:26;10.70;65.50
42135;DHT22;28312;43.460;11.810;2023-02-18T20:06:30;10.60;65.70
42135;DHT22;28312;43.460;11.810;2023-02-18T20:10:34;10.60;65.70
42135;DHT22;28312;43.460;11.810;2023-02-18T20:14:41;10.60;65.70
42135;DHT22;28312;43.460;11.810;2023-02-18T20:18:47;10.60;65.60
42135;DHT22;28312;43.460;11.810;2023-02-18T20:22:50;10.60;65.90
42135;DHT22;28312;43.460;11.810;2023-02-18T20:26:54;10.60;66.10
42135;DHT22;28312;43.460;11.810;2023-02-18T20:31:05;10.50;66.30
42135;DHT22;28312;43.460;11.810;2023-02-18T20:35:09;10.50;66.30
42135;DHT22;28312;43.460;11.810;2023-02-18T20:39:13;10.50;66.30
42135;DHT22;28312;43.460;11.810;2023-02-18T20:43:18;10.50;66.60
42135;DHT22;28312;43.460;11.810;2023-02-18T20:47:21;10.50;66.60
42135;DHT22;28312;43.460;11.810;2023-02-18T20:51:25;10.50;66.50
42135;DHT22;28312;43.460;11.810;2023-02-18T20:55:28;10.50;66.40
42135;DHT22;28312;43.460;11.810;2023-02-18T20:59:31;10.50;66.40
42135;DHT22;28312;43.460;11.810;2023-02-18T21:03:35;10.50;66.30
42135;DHT22;28312;43.460;11.810;2023-02-18T21:07:40;10.50;66.30
42135;DHT22;28312;43.460;11.810;2023-02-18T21:11:43;10.50;66.30
42135;DHT22;28312;43.460;11.810;2023-02-18T21:15:48;10.50;66.20
42135;DHT22;28312;43.460;11.810;2023-02-18T21:19:51;10.50;66.10
42135;DHT22;28312;43.460;11.810;2023-02-18T21:23:55;10.50;66.00
42135;DHT22;28312;43.460;11.810;2023-02-18T21:27:58;10.60;66.10
42135;DHT22;28312;43.460;11.810;2023-02-18T21:32:02;10.60;66.20
42135;DHT22;28312;43.460;11.810;2023-02-18T21:36:06;10.60;66.30
42135;DHT22;28312;43.460;11.810;2023-02-18T21:40:09;10.50;66.20
42135;DHT22;28312;43.460;11.810;2023-02-18T21:44:13;10.50;66.20
42135;DHT22;28312;43.460;11.810;2023-02-18T21:48:16;10.60;66.20
42135;DHT22;28312;43.460;11.810;2023-02-18T21:52:39;10.60;66.10
42135;DHT22;28312;43.460;11.810;2023-02-18T21:56:43;10.70;66.00
42135;DHT22;28312;43.460;11.810;2023-02-18T22:00:55;10.60;66.00
42135;DHT22;28312;43.460;11.810;2023-02-18T22:05:00;10.70;66.00
42135;DHT22;28312;43.460;11.810;2023-02-18T22:09:05;10.70;65.90
42135;DHT22;28312;43.460;11.810;2023-02-18T22:13:09;10.70;65.90
42135;DHT22;28312;43.460;11.810;2023-02-18T22:17:13;10.70;65.90
42135;DHT22;28312;43.460;11.810;2023-02-18T22:21:19;10.70;66.00
42135;DHT22;28312;43.460;11.810;2023-02-18T22:25:23;10.70;66.10
42135;DHT22;28312;43.460;11.810;2023-02-18T22:29:29;10.60;66.10
42135;DHT22;28312;43.460;11.810;2023-02-18T22:33:33;10.60;66.20
42135;DHT22;28312;43.460;11.810;2023-02-18T22:37:38;10.60;66.10
42135;DHT22;28312;43.460;11.810;2023-02-18T22:41:41;10.70;66.10
42135;DHT22;28312;43.460;11.810;2023-02-18T22:45:45;10.70;66.10
42135;DHT22;28312;43.460;11.810;2023-02-18T22:49:48;10.70;66.10
42135;DHT22;28312;43.460;11.810;2023-02-18T22:53:54;10.70;66.10
42135;DHT22;28312;43.460;11.810;2023-02-18T22:57:57;10.60;66.20
42135;DHT22;28312;43.460;11.810;2023-02-18T23:02:01;10.70;66.10
42135;DHT22;28312;43.460;11.810;2023-02-18T23:06:05;10.60;66.20
42135;DHT22;28312;43.460;11.810;2023-02-18T23:10:08;10.60;66.10
42135;DHT22;28312;43.460;11.810;2023-02-18T23:14:11;10.60;66.20
42135;DHT22;28312;43.460;11.810;2023-02-18T23:18:20;10.60;66.20
42135;DHT22;28312;43.460;11.810;2023-02-18T23:22:26;10.60;66.10
42135;DHT22;28312;43.460;11.810;2023-02-18T23:26:33;10.60;66.10
42135;DHT22;28312;43.460;11.810;2023-02-18T23:30:36;10.70;66.10
42135;DHT22;28312;43.460;11.810;2023-02-18T23:34:42;10.60;66.10
42135;DHT22;28312;43.460;11.810;2023-02-18T23:38:47;10.60;66.20
42135;DHT22;28312;43.460;11.810;2023-02-18T23:42:54;10.60;66.20
42135;DHT22;28312;43.460;11.810;2023-02-18T23:46:58;10.60;66.20
42135;DHT22;28312;43.460;11.810;2023-02-18T23:51:04;10.60;66.20
42135;DHT22;28312;43.460;11.810;2023-02-18T23:55:09;10.60;66.20
42135;DHT22;28312;43.460;11.810;2023-02-18T23:59:13;10.60;66.00
